Time;durP1;ratioP1;P1;durP2;ratioP2;P2;SDS_P1;SDS_P2;PMS_P1;PMS_P2;Temp;Humidity;BMP_temperature;BMP_pressure;BME280_temperature;BME280_humidity;BME280_pressure;Samples;Min_cycle;Max_cycle;Signal;HPM_P1;HPM_P2
2023/06/25 00:02:21;;;;;;;22.20;18.90;;;;;;;13.43;100.00;99372.82;109313;1254;58963;-77
2023/06/25 00:04:47;;;;;;;23.10;20.60;;;;;;;13.42;100.00;99372.55;109264;1254;65870;-77
2023/06/25 00:07:16;;;;;;;23.00;20.50;;;;;;;13.41;100.00;99372.83;109312;1255;60122;-77
2023/06/25 00:09:52;;;;;;;22.90;19.20;;;;;;;13.38;100.00;99378.86;109306;1254;62811;-77
2023/06/25 00:12:18;;;;;;;20.10;17.90;;;;;;;13.36;100.00;99378.17;109300;1254;59003;-79
2023/06/25 00:14:45;;;;;;;20.50;18.40;;;;;;;13.32;100.00;99380.23;109315;1254;59039;-78
2023/06/25 00:17:13;;;;;;;20.60;18.50;;;;;;;13.28;100.00;99374.81;109317;1254;59010;-77
2023/06/25 00:19:41;;;;;;;21.50;18.70;;;;;;;13.25;100.00;99371.41;109296;1256;60162;-77
2023/06/25 00:22:11;;;;;;;19.50;17.40;;;;;;;13.24;100.00;99370.09;109287;1254;64055;-78
2023/06/25 00:24:38;;;;;;;19.20;17.30;;;;;;;13.22;100.00;99371.47;109247;1254;58976;-77
2023/06/25 00:27:05;;;;;;;22.10;19.50;;;;;;;13.21;100.00;99367.08;109331;1254;59048;-78
2023/06/25 00:29:33;;;;;;;20.00;18.10;;;;;;;13.21;100.00;99364.26;109316;1254;66079;-78
2023/06/25 00:31:59;;;;;;;23.00;18.60;;;;;;;13.19;100.00;99362.95;109315;1254;60094;-77
2023/06/25 00:34:26;;;;;;;21.10;18.90;;;;;;;13.17;100.00;99355.02;109320;1254;64198;-78
2023/06/25 00:36:52;;;;;;;19.20;17.30;;;;;;;13.16;100.00;99346.02;109274;1255;59011;-77
2023/06/25 00:39:19;;;;;;;22.20;19.00;;;;;;;13.15;100.00;99347.30;109290;1254;59035;-77
2023/06/25 00:41:47;;;;;;;19.80;17.80;;;;;;;13.14;100.00;99346.36;109259;1255;65869;-77
2023/06/25 00:44:14;;;;;;;18.60;16.70;;;;;;;13.13;100.00;99347.14;109179;1254;61354;-77
2023/06/25 00:46:41;;;;;;;17.90;14.60;;;;;;;13.11;100.00;99350.15;109279;1257;59083;-78
2023/06/25 00:49:07;;;;;;;13.60;12.20;;;;;;;13.07;100.00;99347.38;109310;1256;58995;-77
2023/06/25 00:51:36;;;;;;;14.00;12.60;;;;;;;13.04;100.00;99346.73;109298;1254;58892;-77
2023/06/25 00:54:06;;;;;;;12.10;11.00;;;;;;;12.97;100.00;99347.70;109292;1254;66047;-78
2023/06/25 00:56:33;;;;;;;14.60;13.20;;;;;;;12.92;100.00;99340.94;109324;1254;58964;-77
2023/06/25 00:59:02;;;;;;;15.40;13.80;;;;;;;12.92;100.00;99340.10;109281;1254;64028;-79
2023/06/25 01:01:54;;;;;;;14.90;13.20;;;;;;;12.91;100.00;99336.57;109340;1254;59266;-78
2023/06/25 01:04:25;;;;;;;20.90;18.60;;;;;;;12.91;100.00;99337.80;109300;1254;59100;-78
2023/06/25 01:06:57;;;;;;;19.80;17.80;;;;;;;12.92;100.00;99331.88;109311;1254;66877;-77
2023/06/25 01:09:24;;;;;;;16.10;14.50;;;;;;;12.92;100.00;99330.77;109313;1254;60010;-77
2023/06/25 01:12:05;;;;;;;20.10;18.10;;;;;;;12.91;100.00;99330.13;109032;1254;206903;-78
2023/06/25 01:14:33;;;;;;;;;;;;;;;12.90;100.00;99330.74;109285;1255;58967;-76
2023/06/25 01:17:00;;;;;;;16.30;14.50;;;;;;;12.88;100.00;99328.59;109308;1255;59058;-76
2023/06/25 01:19:30;;;;;;;23.10;20.20;;;;;;;12.86;100.00;99326.20;109072;1254;65763;-77
2023/06/25 01:22:02;;;;;;;21.40;18.40;;;;;;;12.85;100.00;99324.85;108990;1256;59035;-77
2023/06/25 01:24:29;;;;;;;22.40;20.00;;;;;;;12.85;100.00;99323.98;109341;1254;64029;-77
2023/06/25 01:26:59;;;;;;;20.80;18.60;;;;;;;12.84;100.00;99320.80;109128;1255;59349;-77
2023/06/25 01:29:27;;;;;;;21.30;18.90;;;;;;;12.84;100.00;99318.88;109331;1256;58947;-76
2023/06/25 01:31:54;;;;;;;22.30;19.80;;;;;;;12.84;100.00;99318.52;109322;1254;65749;-76
2023/06/25 01:34:21;;;;;;;22.70;20.20;;;;;;;12.83;100.00;99318.98;109303;1256;60437;-78
2023/06/25 01:36:52;;;;;;;22.00;19.80;;;;;;;12.82;100.00;99320.79;109303;1254;64230;-78
2023/06/25 01:39:20;;;;;;;22.70;18.70;;;;;;;12.80;100.00;99314.33;109293;1254;59054;-78
2023/06/25 01:41:47;;;;;;;22.60;18.80;;;;;;;12.79;100.00;99309.98;109331;1254;58847;-78
2023/06/25 01:44:19;;;;;;;20.80;18.60;;;;;;;12.76;100.00;99311.05;109292;1254;74892;-78
2023/06/25 01:46:45;;;;;;;21.10;19.00;;;;;;;12.73;100.00;99306.30;109318;1256;60178;-78
2023/06/25 01:49:12;;;;;;;21.90;17.80;;;;;;;12.71;100.00;99304.66;109291;1254;59071;-78
2023/06/25 01:51:38;;;;;;;20.20;18.30;;;;;;;12.70;100.00;99307.95;109268;1254;58954;-77
2023/06/25 01:54:05;;;;;;;22.30;19.60;;;;;;;12.68;100.00;99306.44;109314;1254;59153;-78
2023/06/25 01:56:31;;;;;;;22.00;19.70;;;;;;;12.67;100.00;99306.38;109322;1254;59301;-77
2023/06/25 01:58:58;;;;;;;22.00;19.80;;;;;;;12.66;100.00;99305.70;109326;1254;59093;-78
2023/06/25 02:01:25;;;;;;;17.40;15.70;;;;;;;12.64;100.00;99301.23;109266;1255;64113;-78
2023/06/25 02:03:51;;;;;;;15.80;14.20;;;;;;;12.62;100.00;99304.59;109288;1254;59076;-77
2023/06/25 02:06:18;;;;;;;15.50;13.80;;;;;;;12.57;100.00;99306.19;109275;1254;59060;-77
2023/06/25 02:08:44;;;;;;;15.20;13.70;;;;;;;12.51;100.00;99308.52;109187;1254;59043;-77
2023/06/25 02:11:10;;;;;;;15.30;13.80;;;;;;;12.48;100.00;99306.23;109286;1254;59044;-76
2023/06/25 02:13:37;;;;;;;16.40;14.40;;;;;;;12.46;100.00;99302.27;109259;1256;58903;-77
2023/06/25 02:16:04;;;;;;;17.90;16.10;;;;;;;12.47;100.00;99303.30;109248;1254;59182;-78
2023/06/25 02:18:31;;;;;;;14.10;12.70;;;;;;;12.47;100.00;99301.36;109329;1257;59262;-78
2023/06/25 02:20:58;;;;;;;16.00;14.50;;;;;;;12.46;100.00;99299.66;109285;1255;66048;-78
2023/06/25 02:23:25;;;;;;;17.50;15.70;;;;;;;12.45;100.00;99295.75;109331;1254;59369;-78
2023/06/25 02:25:51;;;;;;;18.30;16.50;;;;;;;12.47;100.00;99301.53;108998;1254;59018;-78
2023/06/25 02:28:18;;;;;;;20.00;17.70;;;;;;;12.47;100.00;99302.02;109307;1254;58945;-78
2023/06/25 02:30:45;;;;;;;18.60;16.80;;;;;;;12.48;100.00;99301.97;109319;1254;58978;-78
2023/06/25 02:33:12;;;;;;;19.00;16.90;;;;;;;12.48;100.00;99299.66;109306;1254;64523;-79
2023/06/25 02:35:39;;;;;;;17.10;15.20;;;;;;;12.47;100.00;99300.79;109326;1254;59974;-78
2023/06/25 02:38:06;;;;;;;13.60;12.30;;;;;;;12.46;100.00;99299.11;109295;1254;64200;-78
2023/06/25 02:40:33;;;;;;;20.50;18.40;;;;;;;12.46;100.00;99298.38;109275;1257;59333;-77
2023/06/25 02:42:59;;;;;;;13.90;12.60;;;;;;;12.48;100.00;99300.05;109297;1254;58860;-77
2023/06/25 02:45:26;;;;;;;16.90;15.30;;;;;;;12.50;100.00;99296.67;109334;1254;59726;-78
2023/06/25 02:47:52;;;;;;;18.00;16.00;;;;;;;12.53;100.00;99299.85;109312;1254;58980;-79
2023/06/25 02:50:19;;;;;;;16.90;15.00;;;;;;;12.57;100.00;99300.80;109264;1254;59810;-79
2023/06/25 02:52:45;;;;;;;17.90;16.10;;;;;;;12.61;100.00;99300.34;108988;1255;59055;-78
2023/06/25 02:55:12;;;;;;;17.60;15.80;;;;;;;12.66;100.00;99298.19;109334;1255;59176;-78
2023/06/25 02:57:38;;;;;;;17.80;16.10;;;;;;;12.72;100.00;99303.85;109302;1254;59228;-78
2023/06/25 03:00:05;;;;;;;20.90;18.70;;;;;;;12.78;100.00;99305.76;109331;1254;59881;-78
2023/06/25 03:02:32;;;;;;;20.90;18.80;;;;;;;12.84;100.00;99304.06;109289;1254;64279;-78
2023/06/25 03:04:59;;;;;;;18.20;16.30;;;;;;;12.91;100.00;99304.10;109295;1254;59415;-79
2023/06/25 03:07:25;;;;;;;17.50;15.80;;;;;;;12.98;100.00;99304.33;109292;1254;58860;-78
2023/06/25 03:09:52;;;;;;;15.30;13.90;;;;;;;13.06;100.00;99306.80;109308;1254;59317;-78
2023/06/25 03:12:18;;;;;;;15.30;13.90;;;;;;;13.13;100.00;99304.99;109304;1256;59020;-79
2023/06/25 03:14:45;;;;;;;18.70;17.00;;;;;;;13.22;100.00;99307.98;109291;1254;59148;-79
2023/06/25 03:17:11;;;;;;;17.80;16.10;;;;;;;13.32;100.00;99311.17;109300;1256;58945;-79
2023/06/25 03:19:38;;;;;;;17.60;16.00;;;;;;;13.42;100.00;99308.99;109317;1254;58922;-77
2023/06/25 03:22:04;;;;;;;17.70;16.00;;;;;;;13.51;100.00;99308.86;109307;1254;64845;-79
2023/06/25 03:24:31;;;;;;;19.50;17.10;;;;;;;13.60;100.00;99309.61;109299;1254;59019;-78
2023/06/25 03:26:57;;;;;;;17.30;15.50;;;;;;;13.71;100.00;99307.38;109305;1256;64119;-79
2023/06/25 03:29:24;;;;;;;18.10;16.40;;;;;;;13.80;100.00;99309.94;109318;1254;58957;-78
2023/06/25 03:31:50;;;;;;;16.50;14.80;;;;;;;13.93;100.00;99310.05;109263;1255;58957;-79
2023/06/25 03:34:17;;;;;;;17.70;15.80;;;;;;;14.25;100.00;99307.63;109328;1254;66141;-79
2023/06/25 03:36:43;;;;;;;15.90;14.50;;;;;;;14.36;100.00;99305.84;109149;1255;59833;-78
2023/06/25 03:39:10;;;;;;;16.30;14.70;;;;;;;14.77;100.00;99302.78;109325;1254;63756;-78
2023/06/25 03:41:37;;;;;;;17.00;14.80;;;;;;;15.67;100.00;99295.54;109297;1254;59060;-78
2023/06/25 03:44:04;;;;;;;15.60;14.10;;;;;;;16.48;100.00;99294.92;109324;1259;59239;-78
2023/06/25 03:46:30;;;;;;;17.30;12.80;;;;;;;17.25;100.00;99292.52;109044;1254;65863;-77
2023/06/25 03:48:57;;;;;;;14.10;12.70;;;;;;;17.82;100.00;99292.35;109345;1254;61126;-77
2023/06/25 03:51:23;;;;;;;15.00;13.40;;;;;;;18.22;100.00;99294.98;109313;1254;64131;-78
2023/06/25 03:53:50;;;;;;;13.40;12.00;;;;;;;18.67;100.00;99295.57;109294;1255;58884;-79
2023/06/25 03:56:16;;;;;;;13.40;12.00;;;;;;;19.18;100.00;99292.77;109095;1254;59207;-78
2023/06/25 03:58:43;;;;;;;13.10;11.90;;;;;;;19.64;100.00;99293.68;109355;1254;66094;-78
2023/06/25 04:01:09;;;;;;;15.30;12.40;;;;;;;19.32;100.00;99295.57;109315;1256;59852;-79
2023/06/25 04:03:36;;;;;;;13.00;11.70;;;;;;;18.84;100.00;99292.32;109325;1254;65036;-78
2023/06/25 04:06:03;;;;;;;13.40;12.00;;;;;;;18.47;100.00;99293.50;108991;1254;59033;-78
2023/06/25 04:08:29;;;;;;;14.10;12.70;;;;;;;18.23;100.00;99293.24;109292;1254;58911;-78
2023/06/25 04:10:56;;;;;;;13.30;12.00;;;;;;;18.47;100.00;99290.64;109370;1254;59299;-79
2023/06/25 04:13:22;;;;;;;12.50;11.30;;;;;;;19.39;100.00;99284.01;109292;1255;59112;-78
2023/06/25 04:15:49;;;;;;;13.50;12.20;;;;;;;20.11;100.00;99282.80;109328;1254;63739;-78
2023/06/25 04:18:15;;;;;;;13.40;12.10;;;;;;;20.73;100.00;99286.16;109313;1254;58996;-79
2023/06/25 04:20:42;;;;;;;13.30;12.10;;;;;;;21.18;100.00;99284.29;109321;1254;59040;-78
2023/06/25 04:23:08;;;;;;;12.80;11.60;;;;;;;21.27;100.00;99289.50;109315;1254;66104;-78
2023/06/25 04:25:35;;;;;;;12.50;11.30;;;;;;;21.42;100.00;99286.80;109312;1254;59008;-78
2023/06/25 04:28:01;;;;;;;12.60;11.40;;;;;;;21.14;100.00;99288.20;109280;1254;64188;-78
2023/06/25 04:30:28;;;;;;;12.70;11.50;;;;;;;21.17;100.00;99290.24;109298;1254;59037;-78
2023/06/25 04:32:55;;;;;;;12.90;11.60;;;;;;;21.68;100.00;99288.77;109302;1255;59042;-78
2023/06/25 04:35:21;;;;;;;13.00;11.70;;;;;;;21.58;100.00;99284.56;109019;1254;66068;-78
2023/06/25 04:37:48;;;;;;;13.00;11.60;;;;;;;21.82;100.00;99282.88;109286;1254;59984;-78
2023/06/25 04:40:14;;;;;;;12.30;11.20;;;;;;;22.49;100.00;99284.35;109001;1254;59000;-78
2023/06/25 04:42:41;;;;;;;12.50;11.30;;;;;;;22.98;100.00;99286.57;109280;1254;59111;-78
2023/06/25 04:45:08;;;;;;;12.80;11.50;;;;;;;23.49;100.00;99285.09;109043;1254;58921;-78
2023/06/25 04:47:35;;;;;;;13.20;12.00;;;;;;;24.00;100.00;99279.12;109074;1254;66135;-78
2023/06/25 04:50:02;;;;;;;12.30;11.10;;;;;;;23.90;100.00;99274.02;109345;1254;59061;-78
2023/06/25 04:52:28;;;;;;;11.50;10.50;;;;;;;23.46;100.00;99275.99;109289;1254;63293;-79
2023/06/25 04:54:55;;;;;;;13.70;11.30;;;;;;;23.71;100.00;99272.59;109273;1260;60965;-79
2023/06/25 04:57:21;;;;;;;12.70;11.40;;;;;;;23.90;100.00;99274.75;109308;1254;59001;-78
2023/06/25 04:59:49;;;;;;;12.70;11.50;;;;;;;23.95;100.00;99273.77;109285;1254;67257;-78
2023/06/25 05:02:15;;;;;;;11.70;10.60;;;;;;;24.01;100.00;99271.27;109328;1254;59926;-78
2023/06/25 05:04:42;;;;;;;13.10;11.70;;;;;;;24.25;100.00;99269.10;109021;1254;64089;-79
2023/06/25 05:07:09;;;;;;;12.80;11.80;;;;;;;24.03;100.00;99268.02;109303;1254;59263;-78
2023/06/25 05:09:35;;;;;;;13.40;12.10;;;;;;;23.77;100.00;99267.34;109298;1259;58947;-78
2023/06/25 05:12:03;;;;;;;13.10;11.80;;;;;;;24.01;100.00;99264.71;109346;1254;66123;-79
2023/06/25 05:14:29;;;;;;;14.00;11.60;;;;;;;24.09;100.00;99264.67;109319;1254;59826;-79
2023/06/25 05:16:56;;;;;;;13.00;11.70;;;;;;;23.58;100.00;99269.94;109334;1254;62558;-79
2023/06/25 05:19:23;;;;;;;13.00;11.80;;;;;;;23.14;100.00;99270.27;109275;1254;59282;-79
2023/06/25 05:21:49;;;;;;;16.90;12.60;;;;;;;23.07;100.00;99269.70;109327;1257;58969;-79
2023/06/25 05:24:16;;;;;;;12.50;11.30;;;;;;;23.58;100.00;99262.66;109303;1254;65745;-79
2023/06/25 05:26:42;;;;;;;13.50;12.20;;;;;;;24.13;100.00;99258.91;109311;1254;60150;-79
2023/06/25 05:29:09;;;;;;;13.80;12.40;;;;;;;24.62;100.00;99263.04;108992;1254;59013;-79
2023/06/25 05:31:36;;;;;;;12.50;11.30;;;;;;;25.07;100.00;99262.02;109271;1254;59174;-79
2023/06/25 05:34:02;;;;;;;12.80;11.60;;;;;;;25.56;100.00;99264.55;109044;1257;59195;-79
2023/06/25 05:36:29;;;;;;;13.40;12.20;;;;;;;25.46;100.00;99269.61;109000;1257;65781;-79
2023/06/25 05:38:55;;;;;;;13.60;12.40;;;;;;;25.13;100.00;99271.19;108981;1257;59025;-79
2023/06/25 05:41:22;;;;;;;15.80;13.60;;;;;;;25.07;100.00;99270.27;109005;1257;62892;-79
2023/06/25 05:43:48;;;;;;;14.30;13.10;;;;;;;25.29;100.00;99264.95;108980;1257;59093;-78
2023/06/25 05:46:15;;;;;;;16.40;15.00;;;;;;;25.44;100.00;99264.59;109027;1257;59109;-79
2023/06/25 05:48:43;;;;;;;15.30;13.40;;;;;;;25.68;100.00;99265.16;109005;1257;66223;-79
2023/06/25 05:51:10;;;;;;;15.00;13.70;;;;;;;25.91;100.00;99264.36;109032;1257;60347;-79
2023/06/25 05:53:39;;;;;;;15.60;14.40;;;;;;;26.16;100.00;99268.38;109002;1257;63675;-78
2023/06/25 05:56:06;;;;;;;15.00;13.60;;;;;;;26.44;100.00;99263.18;109021;1257;59277;-78
2023/06/25 05:58:36;;;;;;;15.00;13.60;;;;;;;26.39;100.00;99263.14;109009;1257;59074;-79
2023/06/25 06:01:04;;;;;;;13.80;12.50;;;;;;;26.25;100.00;99269.42;108996;1257;65771;-79
2023/06/25 06:03:30;;;;;;;13.90;12.70;;;;;;;26.27;100.00;99267.38;108860;1257;60554;-79
2023/06/25 06:05:57;;;;;;;13.60;12.30;;;;;;;26.52;100.00;99266.67;109249;1254;63108;-79
2023/06/25 06:08:24;;;;;;;14.20;12.80;;;;;;;26.69;100.00;99266.13;109134;1254;59044;-79
2023/06/25 06:10:51;;;;;;;13.00;12.00;;;;;;;26.93;100.00;99267.41;109358;1254;58885;-79
2023/06/25 06:13:17;;;;;;;13.30;11.70;;;;;;;27.14;100.00;99264.08;109303;1254;65754;-79
2023/06/25 06:15:44;;;;;;;13.70;12.20;;;;;;;27.43;100.00;99258.79;109334;1254;60198;-79
2023/06/25 06:18:10;;;;;;;15.50;14.00;;;;;;;27.65;100.00;99257.71;109286;1254;63772;-79
2023/06/25 06:20:37;;;;;;;14.30;13.00;;;;;;;27.58;100.00;99253.14;109261;1254;58973;-78
2023/06/25 06:23:03;;;;;;;15.20;13.70;;;;;;;27.35;100.00;99249.79;109004;1254;58976;-79
2023/06/25 06:25:30;;;;;;;14.00;12.60;;;;;;;27.29;100.00;99248.46;109267;1259;65712;-78
2023/06/25 06:27:56;;;;;;;14.80;13.40;;;;;;;27.29;100.00;99248.27;109041;1254;60184;-79
2023/06/25 06:30:23;;;;;;;16.60;14.20;;;;;;;27.38;100.00;99246.14;109303;1254;63083;-78
2023/06/25 06:32:50;;;;;;;14.20;12.90;;;;;;;27.33;100.00;99252.14;109278;1254;58974;-79
2023/06/25 06:35:17;;;;;;;16.40;13.90;;;;;;;27.26;100.00;99251.69;109287;1254;59183;-79
2023/06/25 06:37:43;;;;;;;13.80;12.60;;;;;;;27.44;100.00;99245.82;109311;1254;65721;-79
2023/06/25 06:40:10;;;;;;;15.50;13.90;;;;;;;27.55;100.00;99249.81;109326;1254;58992;-79
2023/06/25 06:42:36;;;;;;;14.10;12.70;;;;;;;27.60;100.00;99254.00;109249;1254;63710;-79
2023/06/25 06:45:03;;;;;;;14.70;13.40;;;;;;;27.61;100.00;99251.11;109262;1255;59002;-78
2023/06/25 06:47:30;;;;;;;15.20;13.60;;;;;;;27.68;100.00;99247.74;109300;1254;59161;-79
2023/06/25 06:49:58;;;;;;;15.00;13.50;;;;;;;27.75;100.00;99248.65;109308;1254;65730;-79
2023/06/25 06:52:25;;;;;;;15.80;14.40;;;;;;;27.78;100.00;99246.79;109284;1254;60175;-79
2023/06/25 06:54:52;;;;;;;16.70;15.10;;;;;;;27.80;100.00;99247.83;109291;1254;65580;-79
2023/06/25 06:57:18;;;;;;;15.20;13.80;;;;;;;27.82;100.00;99245.73;109304;1254;59080;-79
2023/06/25 06:59:45;;;;;;;14.90;13.50;;;;;;;27.85;100.00;99245.05;109270;1254;58930;-77
2023/06/25 07:02:12;;;;;;;17.30;15.80;;;;;;;27.86;100.00;99243.96;109290;1254;64936;-78
2023/06/25 07:04:39;;;;;;;15.00;13.50;;;;;;;28.01;100.00;99241.54;109331;1254;59032;-79
2023/06/25 07:07:06;;;;;;;14.50;13.00;;;;;;;28.17;100.00;99234.27;109290;1254;74821;-79
2023/06/25 07:09:32;;;;;;;14.80;12.90;;;;;;;28.11;100.00;99229.23;109064;1254;58983;-79
2023/06/25 07:11:59;;;;;;;15.80;14.30;;;;;;;28.09;100.00;99225.23;109305;1254;59136;-79
2023/06/25 07:14:25;;;;;;;15.50;14.00;;;;;;;28.19;100.00;99223.89;109325;1254;65865;-80
2023/06/25 07:16:52;;;;;;;14.40;13.00;;;;;;;28.17;100.00;99225.37;109295;1254;59862;-80
2023/06/25 07:19:18;;;;;;;14.90;13.60;;;;;;;28.17;100.00;99227.05;109271;1254;59050;-80
2023/06/25 07:21:45;;;;;;;15.80;14.20;;;;;;;28.13;100.00;99226.08;109300;1254;58977;-79
2023/06/25 07:24:12;;;;;;;16.40;14.00;;;;;;;27.92;100.00;99222.83;109292;1254;59044;-79
2023/06/25 07:26:38;;;;;;;14.90;13.50;;;;;;;27.86;100.00;99220.45;109311;1254;64652;-79
2023/06/25 07:29:05;;;;;;;16.00;14.50;;;;;;;27.84;100.00;99218.55;109298;1254;66960;-80
2023/06/25 07:31:31;;;;;;;15.50;14.00;;;;;;;27.42;100.00;99216.92;109256;1253;59301;-81
2023/06/25 07:33:58;;;;;;;15.00;13.70;;;;;;;27.24;100.00;99218.51;109245;1254;59164;-77
2023/06/25 07:36:24;;;;;;;15.80;14.20;;;;;;;27.11;100.00;99220.33;109285;1254;59057;-81
2023/06/25 07:38:57;;;;;;;15.40;13.80;;;;;;;26.92;100.00;99218.61;108951;1254;65996;-76
2023/06/25 07:41:23;;;;;;;14.00;12.70;;;;;;;26.77;100.00;99219.61;109303;1254;59072;-78
2023/06/25 07:43:50;;;;;;;14.30;12.80;;;;;;;26.59;100.00;99220.60;109244;1254;62825;-80
2023/06/25 07:46:16;;;;;;;17.10;13.80;;;;;;;26.24;100.00;99219.27;109207;1254;59095;-77
2023/06/25 07:48:43;;;;;;;12.90;11.60;;;;;;;26.15;100.00;99216.16;109296;1254;58839;-79
2023/06/25 07:51:09;;;;;;;12.90;11.60;;;;;;;25.95;100.00;99217.89;109299;1254;59368;-81
2023/06/25 07:53:36;;;;;;;12.80;11.40;;;;;;;25.69;100.00;99219.73;109140;1254;59409;-81
2023/06/25 07:56:03;;;;;;;14.00;12.10;;;;;;;25.58;100.00;99213.73;109283;1254;64043;-85
2023/06/25 07:58:30;;;;;;;12.90;11.40;;;;;;;25.54;100.00;99217.50;108942;1258;59199;-77
2023/06/25 08:00:57;;;;;;;11.60;10.50;;;;;;;25.40;100.00;99219.17;108917;1259;59157;-76
2023/06/25 08:03:23;;;;;;;14.80;11.80;;;;;;;25.26;100.00;99216.70;108949;1259;65957;-76
2023/06/25 08:05:50;;;;;;;11.80;10.70;;;;;;;25.20;100.00;99217.92;108950;1259;60054;-75
2023/06/25 08:08:17;;;;;;;12.70;11.50;;;;;;;25.27;100.00;99211.05;108909;1259;64066;-76
2023/06/25 08:10:43;;;;;;;14.00;11.50;;;;;;;25.31;100.00;99210.89;108921;1260;59040;-76
2023/06/25 08:13:09;;;;;;;12.60;11.30;;;;;;;25.25;100.00;99210.22;108922;1259;58977;-76
2023/06/25 08:15:36;;;;;;;11.90;10.80;;;;;;;25.07;100.00;99206.62;108886;1259;59329;-76
2023/06/25 08:18:03;;;;;;;12.80;11.50;;;;;;;25.03;100.00;99206.80;108924;1259;59063;-76
2023/06/25 08:20:30;;;;;;;11.60;10.70;;;;;;;25.07;100.00;99200.91;108935;1259;62514;-77
2023/06/25 08:22:56;;;;;;;12.10;10.70;;;;;;;25.19;100.00;99203.64;108926;1259;59186;-77
2023/06/25 08:25:25;;;;;;;12.40;11.20;;;;;;;25.28;100.00;99200.69;108929;1260;59075;-77
2023/06/25 08:27:51;;;;;;;11.60;10.60;;;;;;;25.32;100.00;99199.35;108923;1259;65815;-76
2023/06/25 08:30:18;;;;;;;11.70;10.60;;;;;;;25.52;100.00;99201.90;108923;1259;70391;-76
2023/06/25 08:32:45;;;;;;;11.10;10.10;;;;;;;25.65;100.00;99196.55;108913;1259;62909;-77
2023/06/25 08:35:12;;;;;;;11.20;9.80;;;;;;;25.87;100.00;99198.23;108948;1259;59138;-77
2023/06/25 08:37:38;;;;;;;10.80;9.80;;;;;;;25.98;100.00;99198.22;109214;1255;58942;-76
2023/06/25 08:40:05;;;;;;;10.60;9.60;;;;;;;25.83;100.00;99202.05;109226;1255;65737;-76
2023/06/25 08:42:32;;;;;;;11.00;9.70;;;;;;;25.81;100.00;99196.20;109249;1255;60234;-76
2023/06/25 08:44:59;;;;;;;11.90;10.80;;;;;;;25.95;100.00;99193.86;109196;1255;64124;-77
2023/06/25 08:47:29;;;;;;;11.70;10.40;;;;;;;25.82;100.00;99195.11;108909;1256;59018;-77
2023/06/25 08:49:56;;;;;;;10.30;9.40;;;;;;;25.83;100.00;99193.79;109059;1255;58944;-76
2023/06/25 08:52:24;;;;;;;11.10;9.10;;;;;;;25.89;100.00;99198.77;109220;1256;65700;-76
2023/06/25 08:54:51;;;;;;;10.80;9.70;;;;;;;25.95;100.00;99197.36;109246;1256;60019;-77
2023/06/25 08:57:18;;;;;;;9.70;8.70;;;;;;;26.01;100.00;99195.98;109255;1255;63750;-76
2023/06/25 08:59:45;;;;;;;9.40;8.60;;;;;;;26.13;100.00;99196.16;108963;1257;59019;-76
2023/06/25 09:02:12;;;;;;;11.00;8.30;;;;;;;26.24;100.00;99196.74;109240;1255;59009;-76
2023/06/25 09:04:38;;;;;;;8.40;7.70;;;;;;;26.33;100.00;99198.70;109231;1255;65839;-76
2023/06/25 09:07:12;;;;;;;8.60;7.80;;;;;;;26.37;100.00;99198.31;109239;1255;60162;-76
2023/06/25 09:09:39;;;;;;;7.90;7.00;;;;;;;26.24;100.00;99189.64;109232;1255;63733;-77
2023/06/25 09:12:06;;;;;;;10.20;8.50;;;;;;;26.35;100.00;99191.52;109211;1255;58933;-77
2023/06/25 09:14:33;;;;;;;12.00;9.60;;;;;;;26.78;100.00;99191.00;109008;1255;59131;-76
2023/06/25 09:17:02;;;;;;;9.90;9.10;;;;;;;26.98;100.00;99185.41;109226;1255;65928;-76
2023/06/25 09:19:28;;;;;;;8.80;8.00;;;;;;;26.95;100.00;99178.67;109001;1256;60178;-76
2023/06/25 09:21:55;;;;;;;8.10;7.50;;;;;;;26.88;100.00;99179.59;109211;1255;63928;-76
2023/06/25 09:24:21;;;;;;;8.00;7.40;;;;;;;27.17;100.00;99174.52;109237;1255;59036;-75
2023/06/25 09:26:50;;;;;;;9.70;6.70;;;;;;;27.48;100.00;99169.09;109095;1256;59030;-76
2023/06/25 09:29:19;;;;;;;6.70;5.70;;;;;;;27.53;100.00;99168.42;108977;1256;66942;-75
2023/06/25 09:31:46;;;;;;;6.00;5.50;;;;;;;27.16;78.52;99173.70;109247;1256;59910;-75
2023/06/25 09:34:15;;;;;;;7.70;6.40;;;;;;;26.76;70.35;99176.19;109239;1255;62640;-75
2023/06/25 09:36:43;;;;;;;7.00;6.40;;;;;;;26.53;71.06;99173.28;109194;1255;59033;-75
2023/06/25 09:39:11;;;;;;;8.00;7.30;;;;;;;26.48;67.52;99179.54;108988;1256;58998;-77
2023/06/25 09:41:42;;;;;;;8.80;7.90;;;;;;;26.32;64.79;99178.34;109098;1255;66108;-75
2023/06/25 09:44:10;;;;;;;8.60;7.80;;;;;;;26.12;64.40;99174.25;109253;1256;59914;-76
2023/06/25 09:46:38;;;;;;;7.80;7.10;;;;;;;26.13;64.83;99170.98;109245;1255;62429;-76
2023/06/25 09:49:07;;;;;;;7.90;7.20;;;;;;;26.12;64.36;99169.73;109231;1255;59278;-75
2023/06/25 09:51:44;;;;;;;9.00;7.90;;;;;;;26.05;63.87;99168.10;109221;1256;59134;-75
2023/06/25 09:54:12;;;;;;;8.10;7.30;;;;;;;26.00;64.66;99164.92;109248;1255;66010;-75
2023/06/25 09:56:43;;;;;;;8.10;7.30;;;;;;;26.06;64.54;99163.79;109252;1255;60069;-75
2023/06/25 09:59:10;;;;;;;8.10;7.30;;;;;;;26.09;64.52;99161.45;109208;1255;64047;-75
2023/06/25 10:01:37;;;;;;;7.60;6.90;;;;;;;26.35;65.37;99154.98;109221;1255;59006;-77
2023/06/25 10:04:04;;;;;;;7.70;6.70;;;;;;;26.50;63.11;99159.22;109225;1255;58924;-75
2023/06/25 10:06:32;;;;;;;9.40;7.50;;;;;;;26.55;62.11;99155.44;108996;1256;67399;-76
2023/06/25 10:09:00;;;;;;;7.80;7.10;;;;;;;26.70;63.46;99153.20;109278;1255;60126;-76
2023/06/25 10:11:28;;;;;;;7.40;6.80;;;;;;;26.78;62.57;99149.58;109204;1255;65131;-76
2023/06/25 10:13:56;;;;;;;8.40;7.70;;;;;;;26.91;63.21;99143.64;109229;1255;58997;-76
2023/06/25 10:16:23;;;;;;;9.10;8.30;;;;;;;27.19;62.28;99141.62;109253;1255;59055;-75
2023/06/25 10:18:54;;;;;;;8.30;7.40;;;;;;;27.38;61.80;99139.69;109229;1255;65833;-76
2023/06/25 10:21:23;;;;;;;9.10;7.40;;;;;;;27.57;60.75;99139.21;109270;1256;61252;-75
2023/06/25 10:23:56;;;;;;;8.30;7.50;;;;;;;27.82;60.26;99135.20;108824;1256;64493;-76
2023/06/25 10:26:28;;;;;;;8.10;7.40;;;;;;;28.25;59.47;99130.94;109218;1255;59115;-76
2023/06/25 10:28:54;;;;;;;8.20;7.40;;;;;;;28.77;58.54;99130.65;109227;1255;59029;-75
2023/06/25 10:31:21;;;;;;;7.50;6.80;;;;;;;29.10;56.07;99129.55;109259;1255;64542;-76
2023/06/25 10:33:48;;;;;;;8.20;7.40;;;;;;;29.39;54.31;99129.55;109283;1255;59910;-76
2023/06/25 10:36:15;;;;;;;8.70;7.60;;;;;;;29.31;51.71;99131.70;108937;1256;63845;-76
2023/06/25 10:38:42;;;;;;;10.40;7.70;;;;;;;28.82;50.97;99130.85;109220;1255;59068;-77
2023/06/25 10:41:09;;;;;;;7.80;7.10;;;;;;;28.19;50.40;99131.09;109234;1255;59122;-76
2023/06/25 10:43:37;;;;;;;8.10;6.60;;;;;;;27.82;51.25;99132.92;109276;1255;65714;-77
2023/06/25 10:46:04;;;;;;;7.80;6.90;;;;;;;27.60;51.26;99130.58;109233;1256;59990;-77
2023/06/25 10:48:30;;;;;;;7.50;6.90;;;;;;;27.44;50.94;99128.92;109259;1255;63714;-76
2023/06/25 10:50:57;;;;;;;7.60;6.70;;;;;;;27.55;50.71;99127.92;109267;1255;59008;-77
2023/06/25 10:53:24;;;;;;;7.60;7.00;;;;;;;27.75;50.76;99124.36;109262;1255;59525;-74
2023/06/25 10:55:52;;;;;;;8.00;7.30;;;;;;;28.05;50.60;99121.11;109239;1255;65755;-77
2023/06/25 10:58:21;;;;;;;7.30;6.60;;;;;;;28.30;49.45;99118.37;109235;1255;59250;-77
2023/06/25 11:00:55;;;;;;;8.30;7.60;;;;;;;28.24;48.78;99112.27;109220;1255;63744;-76
2023/06/25 11:03:23;;;;;;;7.80;7.20;;;;;;;28.07;48.53;99113.73;109247;1255;59270;-76
2023/06/25 11:05:51;;;;;;;7.70;6.90;;;;;;;27.76;48.74;99113.63;109258;1255;59012;-76
2023/06/25 11:08:18;;;;;;;8.00;7.30;;;;;;;27.44;49.82;99111.61;109262;1255;65763;-76